Аэропорт: Астана. Астана

ICAO: UACC

METAR:
2022-06-26 11:30:00
UACC 261130Z 32003MPS 270V040 9999 FEW043CB BKN043 27/15 Q1001 NOSIG RMK QFE720/0960
METAR:
2022-06-26 05:05:00
TAF UACC 260505Z 2606/2706 30008MPS 9999 BKN040CB BKN100 TX28/2609Z TN16/2623Z TEMPO 2606/2615 VRB20MPS 3100 -TSRA SQ BKN011 BKN030CB BECMG 2616/2618 VRB02MPS BECMG 2620/2622 34007MPS BKN011 BKN030CB TEMPO 2622/2706 32009G14MPS 5000 -SHRA BKN007 BKN020CB